TAF MKJP
MKJP 090515Z 0906/1006 35008KT 9999 FEW022 BECMG 0914/0916 13022KT BECMG 1001/1003 36008KT=
METAR MKJP
WC MKJP
WS MKJP
WV MKJP